Time;durP1;ratioP1;P1;durP2;ratioP2;P2;SDS_P1;SDS_P2;PMS_P1;PMS_P2;Temp;Humidity;BMP_temperature;BMP_pressure;BME280_temperature;BME280_humidity;BME280_pressure;Samples;Min_cycle;Max_cycle;Signal;HPM_P1;HPM_P2
2023/06/09 00:01:01;;;;;;;13.98;4.13;;;;;;;;;;5057283;28;19982;-77
2023/06/09 00:03:27;;;;;;;;;;;;;;;;;;5056670;28;20052;-77
2023/06/09 00:05:53;;;;;;;12.73;4.10;;;;;;;;;;5073161;28;19924;-77
2023/06/09 00:08:19;;;;;;;;;;;;;;;;;;5072291;28;20401;-78
2023/06/09 00:10:45;;;;;;;14.45;4.70;;;;;;;;;;5072781;28;19931;-77
2023/06/09 00:13:11;;;;;;;;;;;;;;;;;;5074299;28;20051;-77
2023/06/09 00:15:38;;;;;;;15.45;4.65;;;;;;;;;;5056787;28;19920;-77
2023/06/09 00:18:04;;;;;;;12.68;4.20;;;;;;;;;;5073136;28;20496;-77
2023/06/09 00:20:33;;;;;;;14.73;5.13;;;;;;;;;;5057331;28;20072;-77
2023/06/09 00:23:00;;;;;;;16.83;4.97;;;;;;;;;;5070538;28;20090;-77
2023/06/09 00:25:26;;;;;;;12.13;3.80;;;;;;;;;;5073275;28;20101;-80
2023/06/09 00:27:52;;;;;;;16.48;5.03;;;;;;;;;;5073728;28;20044;-77
2023/06/09 00:30:20;;;;;;;16.02;5.28;;;;;;;;;;5073410;28;20127;-77
2023/06/09 00:32:46;;;;;;;15.93;5.10;;;;;;;;;;5054498;28;20133;-77
2023/06/09 00:35:13;;;;;;;14.50;5.20;;;;;;;;;;5041935;28;20048;-77
2023/06/09 00:37:39;;;;;;;19.77;5.70;;;;;;;;;;5052855;28;20109;-77
2023/06/09 00:40:05;;;;;;;;;;;;;;;;;;5054021;28;20446;-77
2023/06/09 00:42:31;;;;;;;22.92;5.95;;;;;;;;;;5052735;28;19968;-76
2023/06/09 00:44:57;;;;;;;16.77;4.80;;;;;;;;;;5060806;28;20039;-78
2023/06/09 00:47:23;;;;;;;;;;;;;;;;;;5073214;28;20055;-79
2023/06/09 00:49:50;;;;;;;14.73;5.97;;;;;;;;;;5055025;28;19920;-78
2023/06/09 00:52:16;;;;;;;13.45;5.13;;;;;;;;;;5053380;28;20101;-77
2023/06/09 00:54:42;;;;;;;19.35;5.45;;;;;;;;;;5036082;28;20561;-77
2023/06/09 00:57:08;;;;;;;18.60;5.97;;;;;;;;;;5053174;28;20052;-77
2023/06/09 00:59:35;;;;;;;18.33;6.10;;;;;;;;;;5052470;28;20087;-80
2023/06/09 01:02:03;;;;;;;14.95;5.38;;;;;;;;;;5036846;28;20052;-77
2023/06/09 01:04:29;;;;;;;14.07;5.55;;;;;;;;;;5037032;28;20048;-79
2023/06/09 01:07:16;;;;;;;16.52;6.50;;;;;;;;;;5069603;28;20044;-78
2023/06/09 01:10:02;;;;;;;20.27;5.50;;;;;;;;;;5068760;28;20064;-77
2023/06/09 01:12:35;;;;;;;17.73;4.85;;;;;;;;;;5039957;28;20527;-82
2023/06/09 01:15:09;;;;;;;13.38;5.57;;;;;;;;;;5052607;28;20102;-78
2023/06/09 01:17:36;;;;;;;18.52;6.30;;;;;;;;;;5051524;28;20052;-77
2023/06/09 01:20:03;;;;;;;17.25;5.47;;;;;;;;;;5052689;28;20048;-77
2023/06/09 01:22:49;;;;;;;16.65;5.32;;;;;;;;;;5052712;28;20494;-83
2023/06/09 01:25:35;;;;;;;15.75;5.53;;;;;;;;;;5053075;28;20097;-78
2023/06/09 01:28:11;;;;;;;10.57;4.68;;;;;;;;;;5053872;28;20128;-77
2023/06/09 01:30:37;;;;;;;11.57;4.57;;;;;;;;;;5051789;28;20052;-80
2023/06/09 01:33:08;;;;;;;17.67;5.65;;;;;;;;;;5051590;28;20245;-79
2023/06/09 01:35:35;;;;;;;14.25;5.22;;;;;;;;;;5055447;28;20044;-82
2023/06/09 01:38:03;;;;;;;18.10;5.55;;;;;;;;;;5057496;28;20044;-77
2023/06/09 01:40:30;;;;;;;15.48;5.07;;;;;;;;;;5072971;28;20439;-77
2023/06/09 01:42:58;;;;;;;19.98;5.55;;;;;;;;;;5072758;28;20114;-77
2023/06/09 01:45:25;;;;;;;20.20;5.10;;;;;;;;;;5072938;28;20055;-77
2023/06/09 01:47:51;;;;;;;16.10;5.38;;;;;;;;;;5050497;28;20040;-77
2023/06/09 01:50:23;;;;;;;13.82;5.68;;;;;;;;;;5061650;28;20055;-77
2023/06/09 01:52:55;;;;;;;13.05;5.28;;;;;;;;;;5071968;28;20055;-77
2023/06/09 01:55:43;;;;;;;13.95;4.88;;;;;;;;;;5072603;28;20044;-77
2023/06/09 01:58:20;;;;;;;18.25;5.80;;;;;;;;;;5058988;28;20112;-78
2023/06/09 02:00:46;;;;;;;;;;;;;;;;;;5076557;28;20402;-78
2023/06/09 02:03:15;;;;;;;15.18;5.57;;;;;;;;;;5075853;28;19924;-78
2023/06/09 02:05:42;;;;;;;18.38;5.60;;;;;;;;;;5075498;28;20071;-78
2023/06/09 02:08:09;;;;;;;14.10;5.20;;;;;;;;;;5075945;28;20552;-77
2023/06/09 02:10:36;;;;;;;16.65;5.53;;;;;;;;;;5054844;28;20059;-79
2023/06/09 02:13:19;;;;;;;15.77;5.70;;;;;;;;;;5070248;28;20059;-78
2023/06/09 02:15:46;;;;;;;13.07;5.18;;;;;;;;;;5051936;28;20053;-78
2023/06/09 02:18:20;;;;;;;15.70;5.28;;;;;;;;;;5035385;28;20075;-78
2023/06/09 02:20:47;;;;;;;19.30;6.05;;;;;;;;;;5035512;28;20060;-78
2023/06/09 02:23:12;;;;;;;;;;;;;;;;;;5073044;28;20049;-78
2023/06/09 02:25:39;;;;;;;14.07;5.65;;;;;;;;;;5071877;28;19931;-77
2023/06/09 02:28:05;;;;;;;20.35;5.97;;;;;;;;;;5072426;28;20043;-77
2023/06/09 02:30:32;;;;;;;21.83;6.57;;;;;;;;;;5039449;28;20133;-77
2023/06/09 02:32:59;;;;;;;20.88;7.00;;;;;;;;;;5071458;28;20052;-77
2023/06/09 02:35:26;;;;;;;23.95;7.50;;;;;;;;;;5067802;28;20080;-78
2023/06/09 02:37:54;;;;;;;19.33;6.00;;;;;;;;;;5051858;28;20049;-77
2023/06/09 02:40:21;;;;;;;19.98;7.25;;;;;;;;;;5035825;28;20060;-78
2023/06/09 02:42:48;;;;;;;19.73;6.60;;;;;;;;;;5051504;28;20057;-77
2023/06/09 02:45:14;;;;;;;16.38;6.65;;;;;;;;;;5035452;28;20139;-77
2023/06/09 02:47:40;;;;;;;18.48;6.97;;;;;;;;;;5050818;28;20060;-78
2023/06/09 02:50:07;;;;;;;;;;;;;;;;;;5051878;28;20053;-78
2023/06/09 02:52:34;;;;;;;18.73;6.73;;;;;;;;;;5035334;28;19921;-77
2023/06/09 02:55:00;;;;;;;13.98;5.55;;;;;;;;;;5068230;28;20374;-77
2023/06/09 02:57:26;;;;;;;;;;;;;;;;;;5051875;28;20376;-79
2023/06/09 02:59:52;;;;;;;14.50;5.88;;;;;;;;;;5051022;28;19928;-77
2023/06/09 03:02:18;;;;;;;20.42;7.20;;;;;;;;;;5051851;28;20040;-78
2023/06/09 03:04:45;;;;;;;19.65;6.63;;;;;;;;;;5065612;28;20450;-78
2023/06/09 03:07:14;;;;;;;17.00;6.30;;;;;;;;;;5067923;28;20049;-77
2023/06/09 03:09:41;;;;;;;21.63;7.57;;;;;;;;;;5034078;28;20059;-82
2023/06/09 03:12:07;;;;;;;18.08;6.55;;;;;;;;;;5035125;28;20083;-78
2023/06/09 03:14:33;;;;;;;17.70;6.43;;;;;;;;;;5051748;28;20048;-77
2023/06/09 03:17:00;;;;;;;23.10;7.40;;;;;;;;;;5051286;28;20136;-78
2023/06/09 03:19:27;;;;;;;27.67;8.15;;;;;;;;;;5050962;28;20048;-78
2023/06/09 03:21:53;;;;;;;23.30;7.38;;;;;;;;;;5036475;28;20091;-78
2023/06/09 03:24:20;;;;;;;22.02;7.30;;;;;;;;;;5051497;28;20106;-78
2023/06/09 03:26:46;;;;;;;27.55;8.48;;;;;;;;;;5051031;28;20057;-77
2023/06/09 03:29:12;;;;;;;20.05;7.80;;;;;;;;;;5085220;28;20053;-77
2023/06/09 03:31:39;;;;;;;23.05;7.85;;;;;;;;;;5051394;28;20049;-77
2023/06/09 03:34:05;;;;;;;23.88;7.75;;;;;;;;;;5033895;28;20056;-77
2023/06/09 03:36:33;;;;;;;22.90;7.93;;;;;;;;;;5034429;28;20482;-79
2023/06/09 03:38:59;;;;;;;25.13;8.38;;;;;;;;;;5034759;28;20052;-78
2023/06/09 03:41:26;;;;;;;24.90;8.10;;;;;;;;;;5067930;28;20134;-78
2023/06/09 03:43:52;;;;;;;23.52;7.97;;;;;;;;;;5059492;28;20474;-77
2023/06/09 03:46:18;;;;;;;23.55;8.23;;;;;;;;;;5071242;28;20048;-77
2023/06/09 03:48:44;;;;;;;;;;;;;;;;;;5052215;28;20082;-82
2023/06/09 03:51:10;;;;;;;22.67;7.95;;;;;;;;;;5058385;28;19931;-78
2023/06/09 03:53:36;;;;;;;25.88;8.15;;;;;;;;;;5054609;28;20500;-77
2023/06/09 03:56:02;;;;;;;20.25;7.75;;;;;;;;;;5070398;28;20055;-79
2023/06/09 03:58:28;;;;;;;;;;;;;;;;;;5054416;28;20501;-79
2023/06/09 04:00:55;;;;;;;28.43;8.73;;;;;;;;;;5053835;28;19924;-78
2023/06/09 04:03:21;;;;;;;;;;;;;;;;;;5070346;28;20045;-78
2023/06/09 04:05:47;;;;;;;21.13;7.57;;;;;;;;;;5069870;28;20407;-78
2023/06/09 04:08:13;;;;;;;19.00;8.43;;;;;;;;;;5058537;28;20052;-78
2023/06/09 04:10:40;;;;;;;18.35;7.18;;;;;;;;;;5050009;28;20532;-77
2023/06/09 04:13:06;;;;;;;17.20;7.20;;;;;;;;;;5059416;28;20075;-77
2023/06/09 04:15:32;;;;;;;23.75;8.88;;;;;;;;;;5070324;28;20585;-77
2023/06/09 04:17:58;;;;;;;;;;;;;;;;;;5053117;28;20052;-77
2023/06/09 04:20:25;;;;;;;24.58;8.85;;;;;;;;;;5069528;28;19928;-79
2023/06/09 04:22:52;;;;;;;27.10;8.05;;;;;;;;;;5055616;28;20456;-77
2023/06/09 04:25:25;;;;;;;20.52;7.40;;;;;;;;;;5050642;28;20135;-77
2023/06/09 04:27:55;;;;;;;20.08;7.85;;;;;;;;;;5064659;28;20109;-77
2023/06/09 04:30:25;;;;;;;16.30;7.65;;;;;;;;;;5070395;28;20052;-77
2023/06/09 04:32:54;;;;;;;19.52;7.25;;;;;;;;;;5068933;28;20387;-78
2023/06/09 04:35:21;;;;;;;24.48;8.68;;;;;;;;;;5052306;28;20052;-78
2023/06/09 04:37:48;;;;;;;22.83;8.70;;;;;;;;;;5053024;28;20063;-82
2023/06/09 04:40:21;;;;;;;20.02;8.45;;;;;;;;;;5069039;28;20559;-77
2023/06/09 04:42:50;;;;;;;24.80;8.65;;;;;;;;;;5069472;28;20056;-81
2023/06/09 04:45:17;;;;;;;19.27;8.55;;;;;;;;;;5070125;28;20101;-77
2023/06/09 04:47:43;;;;;;;17.38;8.27;;;;;;;;;;5050518;28;20064;-76
2023/06/09 04:50:11;;;;;;;21.83;8.18;;;;;;;;;;5061882;28;20805;-77
2023/06/09 04:52:39;;;;;;;21.92;7.72;;;;;;;;;;5070157;28;20119;-77
2023/06/09 04:55:05;;;;;;;27.33;9.27;;;;;;;;;;5053172;28;20135;-76
2023/06/09 04:57:31;;;;;;;25.27;8.43;;;;;;;;;;5065749;28;20502;-76
2023/06/09 05:00:03;;;;;;;;;;;;;;;;;;5053073;28;20045;-78
2023/06/09 05:02:30;;;;;;;21.42;8.43;;;;;;;;;;5048974;28;19928;-80
2023/06/09 05:04:55;;;;;;;;;;;;;;;;;;5066202;28;20053;-78
2023/06/09 05:07:22;;;;;;;26.05;8.68;;;;;;;;;;5049778;28;19927;-78
2023/06/09 05:09:48;;;;;;;23.17;8.30;;;;;;;;;;5072874;28;20096;-78
2023/06/09 05:12:14;;;;;;;;;;;;;;;;;;5069874;28;20143;-78
2023/06/09 05:14:42;;;;;;;17.73;7.72;;;;;;;;;;5053170;28;20012;-77
2023/06/09 05:17:08;;;;;;;21.83;8.35;;;;;;;;;;5052607;28;20055;-77
2023/06/09 05:19:34;;;;;;;;;;;;;;;;;;5051022;28;20059;-76
2023/06/09 05:22:01;;;;;;;21.02;8.10;;;;;;;;;;5032245;28;20003;-77
2023/06/09 05:24:27;;;;;;;19.08;7.90;;;;;;;;;;5049640;28;20048;-78
2023/06/09 05:26:53;;;;;;;17.05;8.50;;;;;;;;;;5077249;28;20123;-83
2023/06/09 05:29:19;;;;;;;;;;;;;;;;;;5068803;28;20051;-77
2023/06/09 05:31:45;;;;;;;19.25;8.20;;;;;;;;;;5071473;28;20024;-78
2023/06/09 05:34:12;;;;;;;;;;;;;;;;;;5072408;28;20040;-74
2023/06/09 05:36:38;;;;;;;24.60;8.30;;;;;;;;;;5073277;28;20315;-77
2023/06/09 05:39:04;;;;;;;22.80;8.15;;;;;;;;;;5067464;28;20834;-78
2023/06/09 05:41:30;;;;;;;;;;;;;;;;;;5065419;28;20052;-78
2023/06/09 05:43:57;;;;;;;24.45;8.35;;;;;;;;;;5073515;28;19943;-77
2023/06/09 05:46:24;;;;;;;10.95;6.63;;;;;;;;;;5072903;28;20119;-75
2023/06/09 05:48:51;;;;;;;18.40;7.82;;;;;;;;;;5069643;28;20045;-77
2023/06/09 05:51:17;;;;;;;23.35;7.32;;;;;;;;;;5052484;28;20064;-76
2023/06/09 05:53:43;;;;;;;14.20;5.90;;;;;;;;;;5066737;28;20048;-75
2023/06/09 05:56:09;;;;;;;23.08;8.02;;;;;;;;;;5052284;28;20049;-75
2023/06/09 05:58:35;;;;;;;;;;;;;;;;;;5056321;28;20044;-76
2023/06/09 06:01:03;;;;;;;15.95;6.13;;;;;;;;;;5053916;28;19924;-79
2023/06/09 06:03:29;;;;;;;17.80;7.43;;;;;;;;;;5059542;28;20502;-77
2023/06/09 06:05:55;;;;;;;15.43;6.40;;;;;;;;;;5065967;28;20047;-73
2023/06/09 06:08:21;;;;;;;;;;;;;;;;;;5061558;28;20048;-73
2023/06/09 06:10:47;;;;;;;17.80;7.18;;;;;;;;;;5084865;28;19980;-72
2023/06/09 06:13:13;;;;;;;;;;;;;;;;;;5094020;28;20040;-82
2023/06/09 06:15:39;;;;;;;16.98;6.03;;;;;;;;;;5061138;28;19924;-83
2023/06/09 06:18:05;;;;;;;;;;;;;;;;;;5075550;28;20124;-75
2023/06/09 06:20:31;;;;;;;15.60;6.88;;;;;;;;;;5089025;28;19975;-78
2023/06/09 06:22:58;;;;;;;;;;;;;;;;;;5076773;28;20076;-73
2023/06/09 06:25:25;;;;;;;12.85;5.60;;;;;;;;;;5072006;28;19935;-69
2023/06/09 06:27:51;;;;;;;14.20;6.05;;;;;;;;;;5086109;28;20144;-79
2023/06/09 06:30:17;;;;;;;;;;;;;;;;;;5075674;28;20048;-79
2023/06/09 06:32:50;;;;;;;19.55;6.10;;;;;;;;;;5058323;28;19979;-85
2023/06/09 06:35:23;;;;;;;13.70;7.28;;;;;;;;;;5058118;28;20048;-79
2023/06/09 06:37:49;;;;;;;13.30;5.93;;;;;;;;;;5058737;28;20051;-81
2023/06/09 06:40:15;;;;;;;16.52;7.00;;;;;;;;;;5058017;28;20054;-79
2023/06/09 06:42:41;;;;;;;;;;;;;;;;;;5089346;28;20080;-82
2023/06/09 06:45:07;;;;;;;8.70;4.60;;;;;;;;;;5059001;28;19981;-77
2023/06/09 06:47:33;;;;;;;11.50;5.13;;;;;;;;;;5058542;28;20036;-79
2023/06/09 06:49:59;;;;;;;14.68;6.13;;;;;;;;;;5052791;28;20047;-87
2023/06/09 06:52:25;;;;;;;;;;;;;;;;;;5073429;28;20052;-78
2023/06/09 06:54:51;;;;;;;17.20;6.20;;;;;;;;;;5064447;28;19924;-80
2023/06/09 06:57:17;;;;;;;19.27;6.45;;;;;;;;;;5057903;28;20508;-75
2023/06/09 06:59:43;;;;;;;;;;;;;;;;;;5092853;28;20489;-78
2023/06/09 07:02:10;;;;;;;12.43;4.93;;;;;;;;;;5054316;28;19990;-77
2023/06/09 07:04:36;;;;;;;13.27;5.93;;;;;;;;;;5092655;28;20552;-77
2023/06/09 07:07:02;;;;;;;;;;;;;;;;;;5074456;28;20047;-77
2023/06/09 07:09:28;;;;;;;8.45;4.82;;;;;;;;;;5056938;28;19920;-77
2023/06/09 07:11:54;;;;;;;;;;;;;;;;;;5047439;28;20123;-78
2023/06/09 07:14:20;;;;;;;10.55;5.40;;;;;;;;;;5060487;28;19924;-78
2023/06/09 07:16:46;;;;;;;;;;;;;;;;;;5069035;28;20052;-75
2023/06/09 07:19:14;;;;;;;10.05;4.32;;;;;;;;;;5072063;28;20454;-76
2023/06/09 07:21:46;;;;;;;18.08;6.07;;;;;;;;;;5081389;28;20060;-84
2023/06/09 07:24:12;;;;;;;14.48;5.75;;;;;;;;;;5037440;28;20780;-83
2023/06/09 07:26:39;;;;;;;9.25;5.00;;;;;;;;;;5054406;28;20036;-83
2023/06/09 07:29:05;;;;;;;7.63;4.30;;;;;;;;;;5063537;28;20051;-82
2023/06/09 07:31:31;;;;;;;10.15;4.53;;;;;;;;;;5068327;28;20049;-83
2023/06/09 07:33:57;;;;;;;;;;;;;;;;;;5053741;28;20044;-80
2023/06/09 07:36:24;;;;;;;12.27;4.68;;;;;;;;;;5086302;28;19943;-80
2023/06/09 07:38:50;;;;;;;10.13;4.32;;;;;;;;;;5072873;28;20051;-84
2023/06/09 07:41:17;;;;;;;8.02;3.92;;;;;;;;;;5018889;28;20079;-84
2023/06/09 07:43:44;;;;;;;12.48;4.95;;;;;;;;;;5053547;28;20048;-84
2023/06/09 07:46:11;;;;;;;15.70;5.68;;;;;;;;;;5066562;28;20047;-84
2023/06/09 07:48:38;;;;;;;11.30;4.68;;;;;;;;;;5054559;28;20047;-84
2023/06/09 07:51:04;;;;;;;7.03;4.18;;;;;;;;;;5059608;28;20173;-84
2023/06/09 07:53:31;;;;;;;10.20;4.82;;;;;;;;;;5041283;28;20052;-84
2023/06/09 07:55:58;;;;;;;9.63;4.60;;;;;;;;;;5064298;28;20095;-83
2023/06/09 07:58:24;;;;;;;10.73;4.88;;;;;;;;;;5054477;28;20461;-83
2023/06/09 08:00:51;;;;;;;9.13;4.43;;;;;;;;;;5069248;28;20117;-83
2023/06/09 08:03:17;;;;;;;8.57;4.32;;;;;;;;;;5019043;28;20114;-83
2023/06/09 08:05:43;;;;;;;9.38;4.13;;;;;;;;;;5059354;28;20387;-83
2023/06/09 08:08:09;;;;;;;;;;;;;;;;;;5062002;28;20125;-83
2023/06/09 08:10:36;;;;;;;14.30;6.00;;;;;;;;;;5053011;28;20026;-82
2023/06/09 08:13:02;;;;;;;;;;;;;;;;;;5033202;28;20049;-80
2023/06/09 08:15:28;;;;;;;6.85;3.67;;;;;;;;;;5048237;28;19924;-81
2023/06/09 08:17:54;;;;;;;;;;;;;;;;;;5065442;28;20052;-82
2023/06/09 08:20:20;;;;;;;8.95;4.25;;;;;;;;;;5054893;28;19929;-80
2023/06/09 08:22:45;;;;;;;;;;;;;;;;;;5061364;28;20079;-70
2023/06/09 08:25:12;;;;;;;11.70;5.07;;;;;;;;;;5070208;28;19956;-71
2023/06/09 08:27:38;;;;;;;;;;;;;;;;;;5071179;28;20067;-68
2023/06/09 08:30:04;;;;;;;8.98;3.88;;;;;;;;;;5071080;28;19920;-68
2023/06/09 08:32:30;;;;;;;10.68;4.53;;;;;;;;;;5064815;28;20052;-71
2023/06/09 08:34:56;;;;;;;10.55;4.20;;;;;;;;;;5056845;28;20393;-68
2023/06/09 08:37:25;;;;;;;;;;;;;;;;;;5071488;28;20453;-84
2023/06/09 08:39:53;;;;;;;7.13;3.92;;;;;;;;;;5054123;28;19920;-79
2023/06/09 08:42:21;;;;;;;8.43;3.95;;;;;;;;;;5057915;28;20048;-79
2023/06/09 08:44:47;;;;;;;11.88;4.78;;;;;;;;;;5068216;28;20121;-79
2023/06/09 08:47:15;;;;;;;9.68;4.85;;;;;;;;;;5057973;28;20048;-85
2023/06/09 08:49:41;;;;;;;10.00;4.30;;;;;;;;;;5067007;28;20040;-83
2023/06/09 08:52:07;;;;;;;;;;;;;;;;;;5071071;28;20041;-82
2023/06/09 08:54:33;;;;;;;10.25;4.50;;;;;;;;;;5060861;28;20399;-90
2023/06/09 08:56:59;;;;;;;9.65;4.32;;;;;;;;;;5069550;28;20051;-68
2023/06/09 08:59:30;;;;;;;10.88;4.78;;;;;;;;;;5056655;28;20042;-70
2023/06/09 09:01:56;;;;;;;12.10;4.70;;;;;;;;;;5058339;28;20048;-79
2023/06/09 09:04:22;;;;;;;8.93;3.70;;;;;;;;;;5068453;28;20672;-81
2023/06/09 09:06:48;;;;;;;;;;;;;;;;;;5051797;28;20531;-80
2023/06/09 09:09:15;;;;;;;9.60;4.13;;;;;;;;;;5068828;28;19932;-80
2023/06/09 09:11:45;;;;;;;9.63;4.10;;;;;;;;;;5068518;28;20065;-81
2023/06/09 09:14:12;;;;;;;10.27;4.43;;;;;;;;;;5052791;28;20052;-81
2023/06/09 09:16:39;;;;;;;9.05;4.18;;;;;;;;;;5051591;28;20060;-81
2023/06/09 09:19:05;;;;;;;10.73;4.50;;;;;;;;;;5067924;28;20052;-81
2023/06/09 09:21:36;;;;;;;11.05;3.92;;;;;;;;;;5038669;28;20083;-81
2023/06/09 09:24:07;;;;;;;8.70;4.13;;;;;;;;;;5049720;28;20045;-81
2023/06/09 09:26:33;;;;;;;8.88;4.10;;;;;;;;;;5048998;28;20128;-81
2023/06/09 09:29:01;;;;;;;9.20;4.57;;;;;;;;;;5066018;28;20041;-81
2023/06/09 09:31:32;;;;;;;7.03;3.95;;;;;;;;;;5082591;28;20087;-81
2023/06/09 09:33:59;;;;;;;9.20;4.47;;;;;;;;;;5065666;28;20493;-81
2023/06/09 09:36:26;;;;;;;9.60;4.10;;;;;;;;;;5082125;28;20128;-81
2023/06/09 09:38:54;;;;;;;8.43;4.00;;;;;;;;;;5065658;28;20498;-81
2023/06/09 09:41:20;;;;;;;9.95;5.50;;;;;;;;;;5048809;28;20056;-81
2023/06/09 09:43:46;;;;;;;;;;;;;;;;;;5049807;28;20080;-81
2023/06/09 09:46:12;;;;;;;7.55;4.18;;;;;;;;;;5032877;28;20400;-81
2023/06/09 09:48:39;;;;;;;5.75;3.75;;;;;;;;;;5047975;28;20075;-81
2023/06/09 09:51:05;;;;;;;7.72;3.97;;;;;;;;;;5060214;28;20056;-80
2023/06/09 09:53:31;;;;;;;7.70;3.80;;;;;;;;;;5060243;28;20103;-81
2023/06/09 09:56:00;;;;;;;7.38;4.20;;;;;;;;;;5032783;28;20052;-80
2023/06/09 09:58:35;;;;;;;9.20;5.00;;;;;;;;;;5050144;28;20064;-80
2023/06/09 10:01:05;;;;;;;8.85;3.97;;;;;;;;;;5049380;28;20089;-81
2023/06/09 10:03:32;;;;;;;7.18;4.03;;;;;;;;;;5048244;28;20071;-81
2023/06/09 10:06:01;;;;;;;9.80;4.25;;;;;;;;;;5050168;28;20585;-81
2023/06/09 10:08:28;;;;;;;5.40;3.42;;;;;;;;;;5068736;28;20147;-81
2023/06/09 10:10:59;;;;;;;7.82;4.30;;;;;;;;;;5052213;28;20061;-81
2023/06/09 10:13:26;;;;;;;10.13;4.72;;;;;;;;;;5034021;28;20056;-81
2023/06/09 10:15:53;;;;;;;6.88;3.80;;;;;;;;;;5069255;28;20044;-81
2023/06/09 10:18:20;;;;;;;5.55;3.50;;;;;;;;;;5069861;28;20123;-81
2023/06/09 10:20:48;;;;;;;8.80;4.22;;;;;;;;;;5071739;28;20106;-81
2023/06/09 10:23:14;;;;;;;6.65;3.50;;;;;;;;;;5051898;28;20114;-81
2023/06/09 10:25:41;;;;;;;7.80;4.03;;;;;;;;;;5035415;28;20084;-81
2023/06/09 10:28:07;;;;;;;8.68;4.00;;;;;;;;;;5068818;28;20087;-81
2023/06/09 10:30:34;;;;;;;5.60;3.55;;;;;;;;;;5072065;28;20458;-81
2023/06/09 10:33:05;;;;;;;8.20;3.80;;;;;;;;;;5046356;28;20063;-81
2023/06/09 10:35:33;;;;;;;6.15;3.30;;;;;;;;;;5076568;28;20036;-80
2023/06/09 10:37:59;;;;;;;8.07;4.25;;;;;;;;;;5052186;28;20045;-81
2023/06/09 10:40:30;;;;;;;8.55;3.85;;;;;;;;;;5038483;28;20048;-81
2023/06/09 10:43:09;;;;;;;7.50;3.90;;;;;;;;;;5050979;28;20465;-81
2023/06/09 10:45:55;;;;;;;7.47;3.83;;;;;;;;;;5054035;28;20041;-81
2023/06/09 10:48:40;;;;;;;6.43;3.42;;;;;;;;;;5050971;28;20076;-81
2023/06/09 10:51:26;;;;;;;10.32;4.07;;;;;;;;;;5051776;28;20057;-81
2023/06/09 10:54:12;;;;;;;7.03;3.65;;;;;;;;;;5068957;28;20060;-81
2023/06/09 10:56:40;;;;;;;6.07;3.40;;;;;;;;;;5051701;28;20506;-81
2023/06/09 10:59:06;;;;;;;7.88;3.67;;;;;;;;;;5068733;28;20434;-81
2023/06/09 11:01:33;;;;;;;8.10;4.00;;;;;;;;;;5051659;28;20041;-81
2023/06/09 11:03:59;;;;;;;5.15;3.40;;;;;;;;;;5050970;28;20049;-81
2023/06/09 11:06:26;;;;;;;6.45;3.70;;;;;;;;;;5091969;28;20127;-82
2023/06/09 11:09:13;;;;;;;8.77;4.13;;;;;;;;;;5053764;28;20049;-79
2023/06/09 11:11:50;;;;;;;6.32;3.80;;;;;;;;;;5052213;28;20083;-78
2023/06/09 11:14:35;;;;;;;6.85;4.10;;;;;;;;;;5051587;28;20076;-79
2023/06/09 11:17:36;;;;;;;7.30;3.70;;;;;;;;;;5058067;28;20037;-80
2023/06/09 11:20:18;;;;;;;5.47;3.58;;;;;;;;;;5027939;28;20704;-81
2023/06/09 11:22:44;;;;;;;5.75;3.50;;;;;;;;;;5090821;28;20098;-82
2023/06/09 11:25:19;;;;;;;7.25;3.60;;;;;;;;;;5065171;28;20049;-82
2023/06/09 11:27:45;;;;;;;7.78;3.80;;;;;;;;;;5056025;28;20049;-82
2023/06/09 11:30:16;;;;;;;6.40;3.83;;;;;;;;;;5070857;28;20040;-81
2023/06/09 11:32:49;;;;;;;7.20;3.58;;;;;;;;;;5053484;28;20052;-81
2023/06/09 11:35:30;;;;;;;6.40;3.90;;;;;;;;;;5071075;28;20112;-81
2023/06/09 11:37:58;;;;;;;5.25;3.63;;;;;;;;;;5071335;28;20048;-81
2023/06/09 11:40:27;;;;;;;6.72;3.60;;;;;;;;;;5054412;28;20055;-82
2023/06/09 11:42:54;;;;;;;7.07;3.47;;;;;;;;;;5070744;28;20066;-82
2023/06/09 11:45:23;;;;;;;7.05;3.88;;;;;;;;;;5051239;28;20044;-82
2023/06/09 11:47:55;;;;;;;5.80;3.50;;;;;;;;;;5049394;28;20099;-82
2023/06/09 11:50:21;;;;;;;6.43;3.67;;;;;;;;;;5037793;28;20482;-83
2023/06/09 11:52:48;;;;;;;9.63;3.90;;;;;;;;;;5053733;28;20410;-82
2023/06/09 11:55:15;;;;;;;5.97;3.67;;;;;;;;;;5054500;28;20040;-83
2023/06/09 11:57:41;;;;;;;6.10;3.45;;;;;;;;;;5069885;28;20560;-82
2023/06/09 12:00:12;;;;;;;6.05;3.40;;;;;;;;;;5054356;28;20375;-82
2023/06/09 12:02:38;;;;;;;8.75;3.75;;;;;;;;;;5069562;28;20418;-82
2023/06/09 12:05:11;;;;;;;8.05;3.78;;;;;;;;;;5070422;28;20715;-83
2023/06/09 12:07:38;;;;;;;5.50;3.40;;;;;;;;;;5053491;28;20084;-83
2023/06/09 12:10:04;;;;;;;7.82;3.55;;;;;;;;;;5069400;28;20219;-83
2023/06/09 12:12:30;;;;;;;6.18;3.20;;;;;;;;;;5049945;28;20518;-83
2023/06/09 12:14:57;;;;;;;8.05;4.15;;;;;;;;;;5050614;28;20048;-83
2023/06/09 12:17:23;;;;;;;4.97;3.22;;;;;;;;;;5050046;28;20049;-80
2023/06/09 12:19:51;;;;;;;5.07;3.45;;;;;;;;;;5049646;28;20516;-81
2023/06/09 12:22:17;;;;;;;5.65;3.20;;;;;;;;;;5065594;28;20100;-84
2023/06/09 12:24:44;;;;;;;9.27;3.58;;;;;;;;;;5052632;28;20048;-83
2023/06/09 12:27:14;;;;;;;5.75;3.60;;;;;;;;;;5070226;28;20504;-83
2023/06/09 12:29:40;;;;;;;5.32;3.30;;;;;;;;;;5051864;28;20040;-80
2023/06/09 12:32:08;;;;;;;5.82;3.42;;;;;;;;;;5052949;28;20055;-83
2023/06/09 12:34:34;;;;;;;5.55;3.58;;;;;;;;;;5061181;28;20051;-82
2023/06/09 12:37:06;;;;;;;11.98;3.55;;;;;;;;;;5049269;28;20049;-82
2023/06/09 12:39:35;;;;;;;5.65;3.42;;;;;;;;;;5066827;28;20048;-82
2023/06/09 12:42:14;;;;;;;9.73;4.10;;;;;;;;;;5066262;28;20041;-83
2023/06/09 12:44:40;;;;;;;7.18;3.67;;;;;;;;;;5065418;28;20080;-80
2023/06/09 12:47:16;;;;;;;6.55;3.75;;;;;;;;;;5070142;28;20087;-81
2023/06/09 12:49:43;;;;;;;7.47;3.85;;;;;;;;;;5051583;28;20083;-81
2023/06/09 12:52:09;;;;;;;7.63;3.40;;;;;;;;;;5052879;28;20049;-81
2023/06/09 12:54:35;;;;;;;6.55;3.30;;;;;;;;;;5051837;28;20052;-81
2023/06/09 12:57:01;;;;;;;5.32;3.70;;;;;;;;;;5053014;28;20059;-82
2023/06/09 12:59:27;;;;;;;9.88;4.30;;;;;;;;;;5052481;28;20674;-80
2023/06/09 13:01:53;;;;;;;8.85;3.63;;;;;;;;;;5054010;28;20493;-80
2023/06/09 13:04:20;;;;;;;5.97;3.40;;;;;;;;;;5052255;28;20036;-81
2023/06/09 13:06:46;;;;;;;7.90;3.90;;;;;;;;;;5068013;28;20427;-82
2023/06/09 13:09:12;;;;;;;7.03;4.20;;;;;;;;;;5036145;28;20040;-82
2023/06/09 13:11:38;;;;;;;6.95;4.10;;;;;;;;;;5049709;28;20060;-82
2023/06/09 13:14:05;;;;;;;7.13;3.88;;;;;;;;;;5052504;28;20079;-82
2023/06/09 13:16:31;;;;;;;7.05;3.95;;;;;;;;;;5066890;28;20049;-81
2023/06/09 13:18:58;;;;;;;7.97;3.80;;;;;;;;;;5050742;28;20084;-81
2023/06/09 13:21:24;;;;;;;7.15;4.10;;;;;;;;;;5049113;28;20044;-81
2023/06/09 13:23:50;;;;;;;5.13;3.65;;;;;;;;;;5035117;28;20072;-82
2023/06/09 13:26:17;;;;;;;7.25;3.75;;;;;;;;;;5035162;28;20074;-81
2023/06/09 13:28:43;;;;;;;9.57;3.63;;;;;;;;;;5034047;28;20135;-81
2023/06/09 13:31:09;;;;;;;6.32;3.65;;;;;;;;;;5052161;28;20044;-81
2023/06/09 13:33:35;;;;;;;5.22;3.60;;;;;;;;;;5067025;28;20094;-77
2023/06/09 13:36:01;;;;;;;6.55;3.92;;;;;;;;;;5034401;28;20680;-81
2023/06/09 13:38:27;;;;;;;6.22;4.03;;;;;;;;;;5048548;28;20075;-81
2023/06/09 13:40:53;;;;;;;5.80;3.55;;;;;;;;;;5034592;28;20087;-82
2023/06/09 13:43:19;;;;;;;5.03;3.70;;;;;;;;;;5068294;28;20051;-81
2023/06/09 13:45:45;;;;;;;8.88;3.70;;;;;;;;;;5050485;28;20052;-82
2023/06/09 13:48:11;;;;;;;5.80;3.50;;;;;;;;;;5065901;28;20052;-82
2023/06/09 13:50:38;;;;;;;8.23;3.50;;;;;;;;;;5066485;28;20151;-82
2023/06/09 13:53:04;;;;;;;6.75;3.60;;;;;;;;;;5050834;28;20057;-82
2023/06/09 13:55:31;;;;;;;6.53;3.60;;;;;;;;;;5069929;28;20513;-82
2023/06/09 13:57:57;;;;;;;5.13;3.40;;;;;;;;;;5071367;28;20089;-82
2023/06/09 14:00:23;;;;;;;5.38;3.45;;;;;;;;;;5072221;28;20127;-81
2023/06/09 14:02:49;;;;;;;5.65;4.00;;;;;;;;;;5070531;28;20520;-81
2023/06/09 14:05:15;;;;;;;6.72;3.65;;;;;;;;;;5067050;28;20049;-81
2023/06/09 14:07:42;;;;;;;5.68;3.83;;;;;;;;;;5070911;28;20398;-80
2023/06/09 14:10:08;;;;;;;6.57;3.70;;;;;;;;;;5070266;28;20052;-81
2023/06/09 14:12:34;;;;;;;5.47;3.78;;;;;;;;;;5070462;28;20135;-81
2023/06/09 14:15:00;;;;;;;8.57;3.60;;;;;;;;;;5070901;28;20047;-81
2023/06/09 14:17:26;;;;;;;8.68;4.07;;;;;;;;;;5070750;28;20194;-82
2023/06/09 14:19:55;;;;;;;5.95;3.70;;;;;;;;;;5054972;28;20060;-81
2023/06/09 14:22:22;;;;;;;8.40;3.38;;;;;;;;;;5072495;28;20072;-82
2023/06/09 14:24:48;;;;;;;5.82;3.75;;;;;;;;;;5073409;28;20063;-82
2023/06/09 14:27:14;;;;;;;5.60;3.58;;;;;;;;;;5055328;28;20052;-81
2023/06/09 14:29:40;;;;;;;7.07;3.55;;;;;;;;;;5068498;28;20494;-84
2023/06/09 14:32:07;;;;;;;5.75;3.25;;;;;;;;;;5051950;28;20049;-82
2023/06/09 14:34:33;;;;;;;5.32;3.58;;;;;;;;;;5069765;28;20059;-82
2023/06/09 14:36:59;;;;;;;6.18;3.63;;;;;;;;;;5071646;28;20104;-87
2023/06/09 14:39:25;;;;;;;5.78;3.85;;;;;;;;;;5072476;28;20497;-82
2023/06/09 14:41:51;;;;;;;5.35;3.30;;;;;;;;;;5071693;28;20052;-80
2023/06/09 14:44:17;;;;;;;6.35;3.80;;;;;;;;;;5054509;28;20052;-78
2023/06/09 14:46:44;;;;;;;5.55;3.67;;;;;;;;;;5052108;28;20402;-82
2023/06/09 14:49:11;;;;;;;5.95;3.88;;;;;;;;;;5073096;28;20461;-87
2023/06/09 14:51:37;;;;;;;5.85;3.70;;;;;;;;;;5048773;28;20063;-89